createdAt,value
2022-12-24T00:01:03.529Z,11.3
2022-12-24T00:02:10.776Z,10.7
2022-12-24T00:03:18.026Z,10.9
2022-12-24T00:04:24.743Z,10.2
2022-12-24T00:05:31.878Z,9.8
2022-12-24T00:06:39.009Z,10.9
2022-12-24T00:07:46.188Z,11.2
2022-12-24T00:08:53.414Z,10.8
2022-12-24T00:10:00.584Z,11.2
2022-12-24T00:11:07.836Z,11.4
2022-12-24T00:12:14.876Z,11
2022-12-24T00:13:21.950Z,10.7
2022-12-24T00:14:28.845Z,11.2
2022-12-24T00:15:35.965Z,11
2022-12-24T00:16:43.232Z,11.1
2022-12-24T00:17:50.343Z,10.5
2022-12-24T00:18:57.522Z,10
2022-12-24T00:20:04.650Z,9.6
2022-12-24T00:21:11.826Z,9.6
2022-12-24T00:22:18.935Z,9.8
2022-12-24T00:23:25.815Z,9.1
2022-12-24T00:24:32.987Z,10
2022-12-24T00:25:40.146Z,9.6
2022-12-24T00:26:47.234Z,9
2022-12-24T00:27:54.387Z,9.7
2022-12-24T00:29:01.592Z,8.8
2022-12-24T00:30:08.876Z,9.5
2022-12-24T00:31:16.033Z,8.9
2022-12-24T00:32:23.043Z,9.6
2022-12-24T00:33:30.376Z,9.1
2022-12-24T00:34:37.573Z,9
2022-12-24T00:35:44.714Z,9.2
2022-12-24T00:36:51.962Z,9
2022-12-24T00:37:59.087Z,9.2
2022-12-24T00:39:06.178Z,9.8
2022-12-24T00:40:13.427Z,9.8
2022-12-24T00:41:20.499Z,10.3
2022-12-24T00:42:30.467Z,11.1
2022-12-24T00:43:37.601Z,10.5
2022-12-24T00:44:44.846Z,9.4
2022-12-24T00:45:51.994Z,8
2022-12-24T00:46:59.077Z,7.2
2022-12-24T00:48:06.317Z,7.2
2022-12-24T00:49:13.420Z,7.9
2022-12-24T00:50:20.674Z,6.9
2022-12-24T00:51:28.133Z,6.9
2022-12-24T00:52:35.074Z,6.8
2022-12-24T00:53:42.283Z,7
2022-12-24T00:54:49.395Z,7.3
2022-12-24T00:55:56.644Z,6.7
2022-12-24T00:57:03.873Z,6.7
2022-12-24T00:58:10.987Z,6.7
2022-12-24T00:59:18.069Z,6.4
2022-12-24T01:00:24.971Z,6.4
2022-12-24T01:01:32.221Z,7.4
2022-12-24T01:02:39.468Z,6.7
2022-12-24T01:03:46.648Z,6.8
2022-12-24T01:04:53.667Z,7.2
2022-12-24T01:06:06.090Z,6.6
2022-12-24T01:07:18.663Z,6.7
2022-12-24T01:08:25.519Z,7.3
2022-12-24T01:09:32.721Z,7.3
2022-12-24T01:10:39.821Z,7.4
2022-12-24T01:11:47.015Z,7.3
2022-12-24T01:12:54.086Z,7
2022-12-24T01:14:01.345Z,7.1
2022-12-24T01:15:08.522Z,7.3
2022-12-24T01:16:15.680Z,7.2
2022-12-24T01:17:22.751Z,7.7
2022-12-24T01:18:29.633Z,7.6
2022-12-24T01:19:36.788Z,7.6
2022-12-24T01:20:43.990Z,6.5
2022-12-24T01:21:51.168Z,6.7
2022-12-24T01:22:58.248Z,7.5
2022-12-24T01:24:05.517Z,7.3
2022-12-24T01:25:12.616Z,6.3
2022-12-24T01:26:19.712Z,6.3
2022-12-24T01:27:26.770Z,5.9
2022-12-24T01:28:33.904Z,6.2
2022-12-24T01:29:40.958Z,5.9
2022-12-24T01:30:48.114Z,5.9
2022-12-24T01:31:55.272Z,6
2022-12-24T01:33:02.373Z,6.6
2022-12-24T01:34:09.613Z,6.4
2022-12-24T01:35:16.750Z,6.4
2022-12-24T01:36:23.545Z,6.1
2022-12-24T01:37:30.690Z,5.8
2022-12-24T01:38:37.887Z,6.3
2022-12-24T01:39:45.035Z,5.8
2022-12-24T01:40:52.318Z,6.4
2022-12-24T01:42:04.527Z,5.8
2022-12-24T01:43:21.891Z,6.4
2022-12-24T01:44:35.459Z,7.3
2022-12-24T01:45:36.242Z,6.7
2022-12-24T01:46:54.075Z,6.9
2022-12-24T01:48:11.242Z,7
2022-12-24T01:49:26.287Z,7.4
2022-12-24T01:50:33.520Z,7.6
2022-12-24T01:51:40.607Z,7.3
2022-12-24T01:52:47.791Z,7.4
2022-12-24T01:53:54.914Z,6.6
2022-12-24T01:55:02.126Z,6.6
2022-12-24T01:56:09.410Z,6.7
2022-12-24T01:57:16.502Z,6.4
2022-12-24T01:58:29.001Z,5.7
2022-12-24T01:59:36.038Z,5.7
2022-12-24T02:00:43.211Z,5.4
2022-12-24T02:01:50.481Z,5.8
2022-12-24T02:02:57.696Z,4.8
2022-12-24T02:04:04.617Z,5.2
2022-12-24T02:05:11.926Z,5.2
2022-12-24T02:06:29.402Z,5.1
2022-12-24T02:07:36.550Z,4.7
2022-12-24T02:08:43.762Z,5
2022-12-24T02:09:50.969Z,5.2
2022-12-24T02:10:58.113Z,5.3
2022-12-24T02:12:05.374Z,5.5
2022-12-24T02:13:12.268Z,5.3
2022-12-24T02:14:19.429Z,5
2022-12-24T02:15:26.357Z,5.1
2022-12-24T02:16:33.744Z,5
2022-12-24T02:17:48.281Z,5.1
2022-12-24T02:19:01.522Z,5
2022-12-24T02:20:13.927Z,4.7
2022-12-24T02:21:31.361Z,5
2022-12-24T02:22:43.613Z,5.3
2022-12-24T02:24:01.106Z,5.3
2022-12-24T02:25:15.893Z,5.4
2022-12-24T02:26:30.421Z,5.8
2022-12-24T02:27:42.702Z,5.2
2022-12-24T02:28:52.377Z,5.3
2022-12-24T02:30:09.751Z,6.2
2022-12-24T02:31:22.222Z,6.4
2022-12-24T02:32:32.029Z,6.1
2022-12-24T02:33:44.803Z,6.8
2022-12-24T02:34:59.559Z,6.5
2022-12-24T02:36:09.797Z,6.6
2022-12-24T02:37:16.950Z,8.2
2022-12-24T02:38:26.323Z,8.2
2022-12-24T02:39:36.049Z,7.8
2022-12-24T02:40:48.832Z,7.5
2022-12-24T02:41:59.051Z,8.9
2022-12-24T02:43:11.542Z,9.1
2022-12-24T02:44:18.565Z,9.1
2022-12-24T02:45:25.813Z,8.6
2022-12-24T02:46:33.051Z,9.6
2022-12-24T02:47:40.184Z,9
2022-12-24T02:48:47.309Z,8.1
2022-12-24T02:49:54.597Z,8.7
2022-12-24T02:51:01.664Z,9.5
2022-12-24T02:52:08.806Z,8.8
2022-12-24T02:53:26.342Z,8.4
2022-12-24T02:54:33.773Z,9.3
2022-12-24T02:55:40.658Z,9.2
2022-12-24T02:56:47.945Z,9.5
2022-12-24T02:58:00.697Z,9.3
2022-12-24T02:59:13.005Z,9.1
2022-12-24T03:00:30.545Z,9.6
2022-12-24T03:01:48.017Z,8.4
2022-12-24T03:03:05.271Z,8.8
2022-12-24T03:04:22.587Z,9.3
2022-12-24T03:05:34.973Z,9
2022-12-24T03:06:47.780Z,9.6
2022-12-24T03:08:02.593Z,8.4
2022-12-24T03:09:09.885Z,8.2
2022-12-24T03:10:27.306Z,8.9
2022-12-24T03:11:40.085Z,9
2022-12-24T03:12:47.270Z,8.5
2022-12-24T03:13:54.411Z,8.3
2022-12-24T03:15:01.655Z,9.8
2022-12-24T03:16:09.317Z,10.2
2022-12-24T03:17:16.513Z,8.8
2022-12-24T03:18:23.536Z,8.6
2022-12-24T03:19:30.392Z,8.9
2022-12-24T03:20:37.639Z,10.1
2022-12-24T03:21:47.861Z,9.5
2022-12-24T03:22:54.989Z,8.8
2022-12-24T03:24:02.191Z,8.9
2022-12-24T03:25:09.326Z,9.3
2022-12-24T03:26:16.487Z,9
2022-12-24T03:27:23.660Z,8.6
2022-12-24T03:28:30.546Z,9.3
2022-12-24T03:29:37.693Z,9.3
2022-12-24T03:30:44.914Z,8.5
2022-12-24T03:31:52.190Z,10
2022-12-24T03:32:59.180Z,9.2
2022-12-24T03:34:06.314Z,9.5
2022-12-24T03:35:13.507Z,9.7
2022-12-24T03:36:20.643Z,9.1
2022-12-24T03:37:27.623Z,10.1
2022-12-24T03:38:34.603Z,10.3
2022-12-24T03:39:41.841Z,9.3
2022-12-24T03:40:48.996Z,9.7
2022-12-24T03:41:56.135Z,9.6
2022-12-24T03:43:03.305Z,9.8
2022-12-24T03:44:10.536Z,9.2
2022-12-24T03:45:17.689Z,9.7
2022-12-24T03:46:24.497Z,9.2
2022-12-24T03:47:31.596Z,9.7
2022-12-24T03:48:38.772Z,9.8
2022-12-24T03:49:45.993Z,9.1
2022-12-24T03:50:53.228Z,8.4
2022-12-24T03:52:00.231Z,9.3
2022-12-24T03:53:07.432Z,8.4
2022-12-24T03:54:14.588Z,9.2
2022-12-24T03:55:21.688Z,8.5
2022-12-24T03:56:28.561Z,8.6
2022-12-24T03:57:35.616Z,8.7
2022-12-24T03:58:42.849Z,8.2
2022-12-24T03:59:50.016Z,9.6
2022-12-24T04:00:57.287Z,8.6
2022-12-24T04:02:04.611Z,8.9
2022-12-24T04:03:11.574Z,8.6
2022-12-24T04:04:18.662Z,9.2
2022-12-24T04:05:25.517Z,9.4
2022-12-24T04:06:32.657Z,9.1
2022-12-24T04:07:39.829Z,9.3
2022-12-24T04:08:46.984Z,9.4
2022-12-24T04:09:54.223Z,9.7
2022-12-24T04:11:04.800Z,9.1
2022-12-24T04:12:08.532Z,9.1
2022-12-24T04:13:15.651Z,9.8
2022-12-24T04:14:22.825Z,10.4
2022-12-24T04:15:29.763Z,9.8
2022-12-24T04:16:37.120Z,8.8
2022-12-24T04:17:43.994Z,9.2
2022-12-24T04:18:51.137Z,8.8
2022-12-24T04:19:58.494Z,8.8
2022-12-24T04:21:05.749Z,9.1
2022-12-24T04:22:12.760Z,9.7
2022-12-24T04:23:19.723Z,10
2022-12-24T04:24:26.567Z,10.5
2022-12-24T04:25:33.820Z,10.3
2022-12-24T04:26:40.917Z,10.3
2022-12-24T04:27:48.072Z,10.3
2022-12-24T04:28:55.340Z,9.3
2022-12-24T04:30:02.452Z,10.2
2022-12-24T04:31:10.199Z,10.1
2022-12-24T04:32:17.354Z,9.6
2022-12-24T04:33:24.162Z,9.9
2022-12-24T04:34:31.216Z,9.4
2022-12-24T04:35:38.431Z,9.7
2022-12-24T04:36:45.599Z,9.6
2022-12-24T04:37:52.716Z,8.8
2022-12-24T04:38:59.844Z,8.9
2022-12-24T04:40:07.076Z,9
2022-12-24T04:41:20.682Z,8.9
2022-12-24T04:42:21.492Z,9.1
2022-12-24T04:43:28.871Z,8.8
2022-12-24T04:44:35.899Z,9.5
2022-12-24T04:45:43.098Z,8.4
2022-12-24T04:46:50.194Z,9.1
2022-12-24T04:47:57.489Z,7.7
2022-12-24T04:49:04.541Z,8.1
2022-12-24T04:50:11.630Z,8.2
2022-12-24T04:51:18.891Z,8.3
2022-12-24T04:52:25.640Z,9.2
2022-12-24T04:53:32.841Z,7.5
2022-12-24T04:54:40.197Z,8.7
2022-12-24T04:55:47.143Z,8.9
2022-12-24T04:56:54.444Z,9
2022-12-24T04:58:01.436Z,9.1
2022-12-24T04:59:08.693Z,8.2
2022-12-24T05:00:15.881Z,8.8
2022-12-24T05:01:23.236Z,8.7
2022-12-24T05:02:30.565Z,9.4
2022-12-24T05:03:37.506Z,8.9
2022-12-24T05:04:44.819Z,8.8
2022-12-24T05:05:55.170Z,7.9
2022-12-24T05:06:59.045Z,8.8
2022-12-24T05:08:06.381Z,9.6
2022-12-24T05:09:13.415Z,9.1
2022-12-24T05:10:20.514Z,9.1
2022-12-24T05:11:27.384Z,8
2022-12-24T05:12:34.557Z,8.3
2022-12-24T05:13:46.407Z,8.1
2022-12-24T05:14:49.018Z,9.2
2022-12-24T05:15:56.110Z,8.3
2022-12-24T05:17:03.233Z,8.3
2022-12-24T05:18:10.576Z,8.7
2022-12-24T05:19:17.439Z,8.3
2022-12-24T05:20:24.317Z,8.7
2022-12-24T05:21:31.556Z,8.8
2022-12-24T05:22:38.688Z,8.6
2022-12-24T05:23:51.753Z,7.5
2022-12-24T05:25:03.700Z,8
2022-12-24T05:26:16.001Z,7.3
2022-12-24T05:27:31.186Z,7.6
2022-12-24T05:28:38.187Z,7
2022-12-24T05:29:45.311Z,8.2
2022-12-24T05:30:52.569Z,8
2022-12-24T05:31:59.673Z,7.1
2022-12-24T05:33:06.795Z,9.1
2022-12-24T05:34:13.956Z,10.4
2022-12-24T05:35:21.091Z,10.5
2022-12-24T05:36:27.959Z,12.1
2022-12-24T05:37:35.117Z,12.2
2022-12-24T05:38:42.340Z,12.2
2022-12-24T05:39:49.431Z,12
2022-12-24T05:40:56.570Z,12.1
2022-12-24T05:42:03.744Z,11.8
2022-12-24T05:43:10.878Z,12.5
2022-12-24T05:44:17.954Z,11
2022-12-24T05:45:24.974Z,10.8
2022-12-24T05:46:32.336Z,12.1
2022-12-24T05:47:43.159Z,10.6
2022-12-24T05:48:46.396Z,11.9
2022-12-24T05:49:54.456Z,10.3
2022-12-24T05:51:01.698Z,10.9
2022-12-24T05:52:08.952Z,10.9
2022-12-24T05:53:16.139Z,10.8
2022-12-24T05:54:23.039Z,11.6
2022-12-24T05:55:30.017Z,12.6
2022-12-24T05:56:37.070Z,13.1
2022-12-24T05:57:44.281Z,13.4
2022-12-24T05:58:51.418Z,13.9
2022-12-24T05:59:58.600Z,12.7
2022-12-24T06:01:05.740Z,12.6
2022-12-24T06:02:13.798Z,13.2
2022-12-24T06:03:20.986Z,12.4
2022-12-24T06:04:29.070Z,14.5
2022-12-24T06:05:35.039Z,14.9
2022-12-24T06:06:42.163Z,13.8
2022-12-24T06:07:49.327Z,15.3
2022-12-24T06:08:56.498Z,13.1
2022-12-24T06:10:03.676Z,12.7
2022-12-24T06:11:11.352Z,13.2
2022-12-24T06:12:18.838Z,15.1
2022-12-24T06:13:25.867Z,13.1
2022-12-24T06:14:32.995Z,13.4
2022-12-24T06:15:40.192Z,13.6
2022-12-24T06:16:47.322Z,14.8
2022-12-24T06:17:54.449Z,14.5
2022-12-24T06:19:01.660Z,13.6
2022-12-24T06:20:08.787Z,14.6
2022-12-24T06:21:15.893Z,13.1
2022-12-24T06:22:23.102Z,13.3
2022-12-24T06:23:29.941Z,13.2
2022-12-24T06:24:37.103Z,14.4
2022-12-24T06:25:44.407Z,14.1
2022-12-24T06:26:51.323Z,14.5
2022-12-24T06:27:58.540Z,14.7
2022-12-24T06:29:05.706Z,15
2022-12-24T06:30:12.759Z,15.4
2022-12-24T06:31:20.172Z,14.5
2022-12-24T06:32:27.373Z,13.6
2022-12-24T06:33:34.484Z,13.7
2022-12-24T06:34:41.643Z,14
2022-12-24T06:35:48.841Z,12.5
2022-12-24T06:36:55.933Z,14.3
2022-12-24T06:38:03.101Z,12.9
2022-12-24T06:39:10.345Z,12.5
2022-12-24T06:40:17.397Z,12.9
2022-12-24T06:41:24.218Z,13.2
2022-12-24T06:42:31.357Z,14.2
2022-12-24T06:43:38.568Z,13.1
2022-12-24T06:44:50.833Z,15.5
2022-12-24T06:45:58.041Z,15.3
2022-12-24T06:47:05.250Z,14.9
2022-12-24T06:48:12.294Z,14.1
2022-12-24T06:49:19.377Z,13.9
2022-12-24T06:50:26.174Z,13.9
2022-12-24T06:51:33.353Z,14.1
2022-12-24T06:52:40.557Z,13.9
2022-12-24T06:53:47.765Z,13.7
2022-12-24T06:54:54.834Z,14.6
2022-12-24T06:56:02.022Z,15.3
2022-12-24T06:57:09.172Z,15.6
2022-12-24T06:58:16.232Z,15.3
2022-12-24T06:59:23.478Z,15.4
2022-12-24T07:00:30.414Z,15.6
2022-12-24T07:01:37.519Z,14.5
2022-12-24T07:02:44.645Z,13
2022-12-24T07:03:51.739Z,14.9
2022-12-24T07:04:58.864Z,14.3
2022-12-24T07:06:06.119Z,14.6
2022-12-24T07:07:23.382Z,15.9
2022-12-24T07:08:30.246Z,13.6
2022-12-24T07:09:37.386Z,15.6
2022-12-24T07:10:48.995Z,15.9
2022-12-24T07:11:52.059Z,15.6
2022-12-24T07:12:58.874Z,15
2022-12-24T07:14:06.027Z,15.4
2022-12-24T07:15:13.161Z,13.8
2022-12-24T07:16:20.530Z,14.2
2022-12-24T07:17:27.594Z,13.8
2022-12-24T07:18:34.424Z,13.5
2022-12-24T07:19:41.589Z,14.2
2022-12-24T07:20:49.026Z,13.2
2022-12-24T07:21:55.861Z,12.8
2022-12-24T07:23:02.631Z,13.2
2022-12-24T07:24:09.802Z,12.5
2022-12-24T07:25:16.828Z,14.3
2022-12-24T07:26:24.043Z,16
2022-12-24T07:27:30.875Z,15.1
2022-12-24T07:28:37.985Z,13.7
2022-12-24T07:29:45.224Z,14.3
2022-12-24T07:30:52.510Z,15.6
2022-12-24T07:31:59.486Z,14.7
2022-12-24T07:33:06.650Z,13.7
2022-12-24T07:34:13.785Z,14.7
2022-12-24T07:35:20.959Z,14.5
2022-12-24T07:36:28.063Z,12.9
2022-12-24T07:37:35.174Z,13.6
2022-12-24T07:38:42.093Z,13.7
2022-12-24T07:39:49.369Z,13.5
2022-12-24T07:40:56.621Z,12.6
2022-12-24T07:42:03.701Z,11.4
2022-12-24T07:43:10.967Z,14
2022-12-24T07:44:18.687Z,14.1
2022-12-24T07:45:25.757Z,15.1
2022-12-24T07:46:33.022Z,13.5
2022-12-24T07:47:40.055Z,15.8
2022-12-24T07:48:47.286Z,16.5
2022-12-24T07:49:54.472Z,14.3
2022-12-24T07:51:01.555Z,14.5
2022-12-24T07:52:08.697Z,16.9
2022-12-24T07:53:15.885Z,15.8
2022-12-24T07:54:23.149Z,15
2022-12-24T07:55:30.425Z,18.1
2022-12-24T07:56:37.657Z,15.6
2022-12-24T07:57:44.722Z,16.9
2022-12-24T07:58:51.908Z,17.3
2022-12-24T07:59:59.008Z,18.2
2022-12-24T08:01:06.184Z,17.6
2022-12-24T08:02:18.043Z,16.6
2022-12-24T08:03:20.548Z,15.9
2022-12-24T08:04:27.424Z,16.3
2022-12-24T08:05:34.424Z,16
2022-12-24T08:06:41.569Z,15.1
2022-12-24T08:07:48.745Z,17
2022-12-24T08:08:55.921Z,16.8
2022-12-24T08:10:03.162Z,16.2
2022-12-24T08:11:10.718Z,16.3
2022-12-24T08:12:17.897Z,17.5
2022-12-24T08:13:24.793Z,16.9
2022-12-24T08:14:31.938Z,17.2
2022-12-24T08:15:39.369Z,17.7
2022-12-24T08:16:46.494Z,19.5
2022-12-24T08:17:53.384Z,18.8
2022-12-24T08:19:00.556Z,18.3
2022-12-24T08:20:07.650Z,14.7
2022-12-24T08:21:14.818Z,13.4
2022-12-24T08:22:22.259Z,14.5
2022-12-24T08:23:29.523Z,15.2
2022-12-24T08:24:36.518Z,14.3
2022-12-24T08:25:43.757Z,17.4
2022-12-24T08:26:50.946Z,17.5
2022-12-24T08:27:58.143Z,17.8
2022-12-24T08:29:05.284Z,20
2022-12-24T08:30:16.161Z,18.7
2022-12-24T08:31:19.560Z,18.5
2022-12-24T08:32:26.366Z,16.5
2022-12-24T08:33:33.466Z,18.2
2022-12-24T08:34:40.639Z,15
2022-12-24T08:35:47.911Z,15.6
2022-12-24T08:36:55.089Z,16.4
2022-12-24T08:38:02.123Z,16.4
2022-12-24T08:39:09.358Z,16.2
2022-12-24T08:40:16.553Z,15.5
2022-12-24T08:41:23.677Z,14.6
2022-12-24T08:42:30.614Z,14.7
2022-12-24T08:43:37.718Z,15.3
2022-12-24T08:44:44.852Z,15.3
2022-12-24T08:45:52.108Z,14.2
2022-12-24T08:46:59.194Z,13.6
2022-12-24T08:48:06.514Z,13.2
2022-12-24T08:49:13.471Z,13.5
2022-12-24T08:50:20.631Z,14.7
2022-12-24T08:51:27.455Z,14
2022-12-24T08:52:34.642Z,12.8
2022-12-24T08:53:41.827Z,13.6
2022-12-24T08:54:49.132Z,15.2
2022-12-24T08:55:56.658Z,14.5
2022-12-24T08:57:09.075Z,13.9
2022-12-24T08:58:16.133Z,13.5
2022-12-24T08:59:23.209Z,12.9
2022-12-24T09:00:30.132Z,12.1
2022-12-24T09:01:37.339Z,11
2022-12-24T09:02:44.554Z,11
2022-12-24T09:03:51.690Z,11.3
2022-12-24T09:04:58.702Z,10.3
2022-12-24T09:06:05.873Z,9.5
2022-12-24T09:07:13.002Z,9.2
2022-12-24T09:08:20.217Z,9.5
2022-12-24T09:09:29.305Z,9.2
2022-12-24T09:10:34.405Z,8.7
2022-12-24T09:11:41.431Z,10.1
2022-12-24T09:12:48.617Z,9.3
2022-12-24T09:13:55.740Z,10.2
2022-12-24T09:15:03.989Z,9
2022-12-24T09:16:10.377Z,9.2
2022-12-24T09:17:17.293Z,9.2
2022-12-24T09:18:24.460Z,8.7
2022-12-24T09:19:31.290Z,8.9
2022-12-24T09:20:41.538Z,9.6
2022-12-24T09:21:45.653Z,9
2022-12-24T09:22:52.753Z,9.5
2022-12-24T09:23:59.954Z,10.2
2022-12-24T09:25:07.093Z,9.5
2022-12-24T09:26:14.242Z,9
2022-12-24T09:27:23.935Z,9.7
2022-12-24T09:28:30.818Z,10
2022-12-24T09:29:38.081Z,10.2
2022-12-24T09:30:45.145Z,9.4
2022-12-24T09:32:02.766Z,10.4
2022-12-24T09:33:09.720Z,10.9
2022-12-24T09:34:16.897Z,10.7
2022-12-24T09:35:24.375Z,11.6
2022-12-24T09:36:31.423Z,11.4
2022-12-24T09:37:38.593Z,11.5
2022-12-24T09:38:45.784Z,11.6
2022-12-24T09:39:53.607Z,11.6
2022-12-24T09:41:07.018Z,12.1
2022-12-24T09:42:13.825Z,12.5
2022-12-24T09:43:31.433Z,11.2
2022-12-24T09:44:39.045Z,13.1
2022-12-24T09:45:54.427Z,13.2
2022-12-24T09:47:11.864Z,12.1
2022-12-24T09:48:29.395Z,12.4
2022-12-24T09:49:36.818Z,12.3
2022-12-24T09:50:44.644Z,13.5
2022-12-24T09:52:02.069Z,13.4
2022-12-24T09:53:09.233Z,12.9
2022-12-24T09:54:18.957Z,13.7
2022-12-24T09:55:28.429Z,13.5
2022-12-24T09:56:40.714Z,12.8
2022-12-24T09:57:48.719Z,13.4
2022-12-24T09:58:56.028Z,14
2022-12-24T10:00:03.286Z,13.3
2022-12-24T10:01:15.657Z,11.6
2022-12-24T10:02:22.761Z,13.3
2022-12-24T10:03:29.563Z,12
2022-12-24T10:04:36.850Z,13.1
2022-12-24T10:05:43.919Z,13.7
2022-12-24T10:07:01.264Z,12.7
2022-12-24T10:08:18.705Z,12.1
2022-12-24T10:09:34.204Z,12.4
2022-12-24T10:10:44.073Z,12.9
2022-12-24T10:11:53.956Z,12.8
2022-12-24T10:13:09.283Z,13.5
2022-12-24T10:14:21.788Z,13
2022-12-24T10:15:39.868Z,13
2022-12-24T10:16:58.167Z,12.5
2022-12-24T10:18:10.422Z,12.9
2022-12-24T10:19:20.073Z,12.5
2022-12-24T10:20:26.916Z,11.9
2022-12-24T10:21:34.073Z,12.5
2022-12-24T10:22:49.647Z,12.3
2022-12-24T10:23:57.390Z,12.7
2022-12-24T10:25:09.324Z,12.1
2022-12-24T10:26:24.285Z,13.3
2022-12-24T10:27:34.225Z,13.8
2022-12-24T10:28:43.321Z,15
2022-12-24T10:29:51.690Z,14.4
2022-12-24T10:31:06.712Z,14.6
2022-12-24T10:32:13.545Z,14.5
2022-12-24T10:33:29.506Z,14.8
2022-12-24T10:34:36.768Z,16.4
2022-12-24T10:35:46.518Z,16.7
2022-12-24T10:36:54.567Z,15.8
2022-12-24T10:38:01.848Z,17
2022-12-24T10:39:10.205Z,17
2022-12-24T10:40:20.312Z,16.8
2022-12-24T10:41:35.326Z,18.5
2022-12-24T10:42:48.311Z,16.9
2022-12-24T10:43:49.939Z,17.3
2022-12-24T10:45:02.955Z,17.3
2022-12-24T10:46:10.297Z,12.4
2022-12-24T10:47:17.509Z,12.9
2022-12-24T10:48:24.798Z,13.3
2022-12-24T10:49:31.876Z,13.1
2022-12-24T10:50:47.093Z,11
2022-12-24T10:51:59.410Z,11.4
2022-12-24T10:53:06.674Z,10.9
2022-12-24T10:54:26.428Z,10.8
2022-12-24T10:55:48.188Z,10.4
2022-12-24T10:56:55.396Z,10.4
2022-12-24T10:58:02.574Z,8.7
2022-12-24T10:59:09.720Z,7.4
2022-12-24T11:00:28.434Z,7.5
2022-12-24T11:01:38.205Z,8.7
2022-12-24T11:02:45.495Z,8.5
2022-12-24T11:03:52.511Z,8.2
2022-12-24T11:05:04.760Z,7.6
2022-12-24T11:06:17.041Z,7.4
2022-12-24T11:07:24.399Z,6.9
2022-12-24T11:08:31.485Z,7.7
2022-12-24T11:09:39.570Z,8.4
2022-12-24T11:10:46.364Z,7.2
2022-12-24T11:12:39.926Z,7.2
2022-12-24T11:13:46.864Z,6.9
2022-12-24T11:14:54.419Z,6.6
2022-12-24T11:16:06.945Z,7.2
2022-12-24T11:17:19.189Z,9.7
2022-12-24T11:21:08.294Z,8.8
2022-12-24T11:22:15.191Z,7.9
2022-12-24T11:23:22.284Z,8.1
2022-12-24T11:24:29.181Z,10.5
2022-12-24T11:25:38.872Z,5.4
2022-12-24T11:26:45.986Z,5.2
2022-12-24T11:27:53.618Z,5.5
2022-12-24T11:29:00.983Z,5.5
2022-12-24T11:30:11.831Z,4.5
2022-12-24T11:31:19.358Z,3.8
2022-12-24T11:32:26.166Z,3.8
2022-12-24T11:33:33.274Z,4.2
2022-12-24T11:34:48.140Z,4.3
2022-12-24T11:35:58.391Z,3.9
2022-12-24T11:37:14.036Z,3.7
2022-12-24T11:38:23.948Z,3.9
2022-12-24T11:39:30.784Z,3.1
2022-12-24T11:40:38.140Z,2.9
2022-12-24T11:41:45.190Z,3.9
2022-12-24T11:42:52.268Z,3.1
2022-12-24T11:43:59.508Z,2.9
2022-12-24T11:45:09.187Z,2.6
2022-12-24T11:50:17.951Z,2.4
2022-12-24T11:51:26.282Z,2.3
2022-12-24T11:52:33.512Z,2.4
2022-12-24T11:53:41.726Z,2.5
2022-12-24T11:54:59.076Z,3
2022-12-24T11:56:17.262Z,2.7
2022-12-24T11:57:29.384Z,2.4
2022-12-24T11:58:36.781Z,2.6
2022-12-24T11:59:46.977Z,3.5
2022-12-24T12:00:54.074Z,3.2
2022-12-24T12:02:11.412Z,7.8
2022-12-24T12:03:26.467Z,6.8
2022-12-24T12:04:34.662Z,5.8
2022-12-24T12:05:42.683Z,9.2
2022-12-24T12:06:49.759Z,8.2
2022-12-24T12:07:56.842Z,6.9
2022-12-24T12:09:12.135Z,4.2
2022-12-24T12:10:29.636Z,11.7
2022-12-24T12:11:36.750Z,8.3
2022-12-24T12:12:43.982Z,6.6
2022-12-24T12:13:51.117Z,4.1
2022-12-24T12:14:58.298Z,3.3
2022-12-24T12:16:05.622Z,5.1
2022-12-24T12:17:18.621Z,3.6
2022-12-24T12:18:31.641Z,5
2022-12-24T12:19:39.154Z,8
2022-12-24T12:20:50.372Z,3.7
2022-12-24T12:21:57.371Z,3.5
2022-12-24T12:23:04.622Z,6.5
2022-12-24T12:24:24.304Z,6.2
2022-12-24T12:25:28.678Z,5.6
2022-12-24T12:26:41.015Z,4.8
2022-12-24T12:27:48.044Z,5
2022-12-24T12:28:55.322Z,4.9
2022-12-24T12:30:07.617Z,4.8
2022-12-24T12:31:18.145Z,5.2
2022-12-24T12:41:16.810Z,6.6
2022-12-24T12:42:34.332Z,7.6
2022-12-24T12:43:41.381Z,6.1
2022-12-24T12:44:59.844Z,6.2
2022-12-24T12:54:00.436Z,6.2
2022-12-24T12:55:24.044Z,6.1
2022-12-24T12:56:30.287Z,5.2
2022-12-24T12:57:37.506Z,6.4
2022-12-24T12:58:44.724Z,6.8
2022-12-24T12:59:59.829Z,6
2022-12-24T13:01:07.247Z,6.6
2022-12-24T13:02:24.598Z,7.6
2022-12-24T13:03:37.950Z,9.6
2022-12-24T14:10:49.987Z,9.6
2022-12-24T14:11:59.864Z,5.8
2022-12-24T14:13:07.019Z,5.8
2022-12-24T14:14:24.449Z,12.4
2022-12-24T14:15:37.107Z,13.8
2022-12-24T14:20:21.463Z,13.8
2022-12-24T14:21:28.886Z,26.3
2022-12-24T14:22:35.973Z,25
2022-12-24T14:23:43.148Z,22.9
2022-12-24T14:24:55.459Z,22.9
2022-12-24T14:26:05.147Z,22.9
2022-12-24T14:27:13.303Z,22.9
2022-12-24T14:28:26.474Z,22.9
2022-12-24T14:29:33.563Z,55
2022-12-24T14:38:39.906Z,55
2022-12-24T14:39:46.958Z,24.9
2022-12-24T14:40:54.136Z,18.7
2022-12-24T14:42:08.220Z,18.8
2022-12-24T14:43:25.756Z,18.2
2022-12-24T14:54:58.680Z,7.9
2022-12-24T14:56:05.844Z,7.9
2022-12-24T14:57:12.980Z,7.7
2022-12-24T14:58:28.236Z,7.5
2022-12-24T14:59:40.776Z,6.1
2022-12-24T15:14:40.525Z,6.1
2022-12-24T15:15:52.170Z,8.4
2022-12-24T15:16:54.888Z,9.7
2022-12-24T15:18:07.104Z,11
2022-12-24T15:20:13.687Z,11
2022-12-24T15:21:20.962Z,9.3
2022-12-24T15:22:34.064Z,9.3
2022-12-24T15:23:41.046Z,9.3
2022-12-24T15:24:48.237Z,9.3
2022-12-24T15:29:03.476Z,9.3
2022-12-24T15:30:07.713Z,9.3
2022-12-24T15:31:18.501Z,9.3
2022-12-24T15:32:25.184Z,8.6
2022-12-24T15:37:23.162Z,8.6
2022-12-24T15:38:30.011Z,8.6
2022-12-24T15:39:43.346Z,8.6
2022-12-24T15:40:58.711Z,8.6
2022-12-24T15:42:05.877Z,8.6
2022-12-24T15:46:12.497Z,12.8
2022-12-24T15:47:24.432Z,14
2022-12-24T15:48:31.363Z,13.6
2022-12-24T15:49:38.468Z,12.9
2022-12-24T16:01:19.220Z,22.4
2022-12-24T16:02:29.491Z,22
2022-12-24T16:03:41.341Z,22.7
2022-12-24T16:04:53.483Z,24
2022-12-24T16:06:00.757Z,25.6
2022-12-24T16:07:21.313Z,32.3
2022-12-24T16:08:28.536Z,32.4
2022-12-24T16:09:35.746Z,31.2
2022-12-24T16:10:46.248Z,28.2
2022-12-24T16:12:03.974Z,27.3
2022-12-24T16:13:16.132Z,28.8
2022-12-24T16:14:23.343Z,29
2022-12-24T16:15:30.818Z,31
2022-12-24T16:16:37.942Z,32.2
2022-12-24T16:17:45.084Z,32.2
2022-12-24T16:18:52.223Z,32.2
2022-12-24T16:19:59.377Z,32.2
2022-12-24T16:21:06.443Z,32.2
2022-12-24T16:22:13.258Z,40.8
2022-12-24T16:23:25.478Z,39.6
2022-12-24T16:24:37.592Z,39
2022-12-24T16:25:44.640Z,42
2022-12-24T16:26:51.833Z,42.9
2022-12-24T16:28:00.717Z,46.1
2022-12-24T16:29:06.154Z,43.9
2022-12-24T16:30:13.337Z,43.7
2022-12-24T16:31:20.681Z,43.9
2022-12-24T16:32:33.002Z,42
2022-12-24T16:33:40.148Z,42.1
2022-12-24T16:34:47.314Z,39.4
2022-12-24T16:35:55.279Z,40.6
2022-12-24T16:37:03.209Z,40.4
2022-12-24T16:38:10.373Z,39.4
2022-12-24T16:39:17.492Z,39.8
2022-12-24T16:40:28.280Z,40.7
2022-12-24T16:41:34.008Z,39.7
2022-12-24T16:43:18.888Z,39.7
2022-12-24T16:44:31.004Z,28.4
2022-12-24T16:45:38.177Z,29.4
2022-12-24T16:46:45.558Z,28.9
2022-12-24T16:47:52.596Z,27.8
2022-12-24T16:48:59.660Z,30.7
2022-12-24T16:50:06.894Z,30.1
2022-12-24T16:51:13.909Z,28.8
2022-12-24T16:52:21.116Z,30.3
2022-12-24T16:59:33.166Z,26.1
2022-12-24T17:00:40.526Z,20.7
2022-12-24T17:01:47.636Z,20.4
2022-12-24T17:02:54.965Z,19.7
2022-12-24T17:25:05.726Z,38.4
2022-12-24T17:26:15.079Z,45
2022-12-24T17:27:20.075Z,43.1
2022-12-24T17:28:27.171Z,45.8
2022-12-24T17:29:34.092Z,46.8
2022-12-24T17:30:41.345Z,38.7
2022-12-24T17:31:48.426Z,36.3
2022-12-24T17:32:55.793Z,35.7
2022-12-24T17:34:02.809Z,32.3
2022-12-24T17:39:33.499Z,32.3
2022-12-24T17:40:40.406Z,28.7
2022-12-24T17:41:47.551Z,29.5
2022-12-24T17:42:54.900Z,33.3
2022-12-24T17:44:01.923Z,30.3
2022-12-24T17:51:45.473Z,33.1
2022-12-24T17:52:50.416Z,30.1
2022-12-24T17:53:57.412Z,31.1
2022-12-24T17:55:04.572Z,31.2
2022-12-24T17:56:35.528Z,31.1
2022-12-24T17:57:42.781Z,30.5
2022-12-24T17:58:49.736Z,32.2
2022-12-24T17:59:56.855Z,30.8
2022-12-24T18:01:04.159Z,30.7
2022-12-24T18:02:54.144Z,30.7
2022-12-24T18:04:01.149Z,29.6
2022-12-24T18:05:08.222Z,29.1
2022-12-24T18:06:15.383Z,30.5
2022-12-24T18:07:22.535Z,30.9
2022-12-24T18:08:31.240Z,30.6
2022-12-24T18:09:38.131Z,32.2
2022-12-24T18:10:45.265Z,37
2022-12-24T18:11:52.655Z,35.7
2022-12-24T18:12:59.603Z,36.9
2022-12-24T18:14:16.768Z,43.1
2022-12-24T18:15:23.665Z,46.4
2022-12-24T18:16:31.029Z,47
2022-12-24T18:17:38.273Z,52.7
2022-12-24T18:18:45.330Z,63
2022-12-24T18:20:46.191Z,63
2022-12-24T18:21:47.410Z,72.8
2022-12-24T18:22:54.650Z,70.7
2022-12-24T18:24:01.801Z,61.8
2022-12-24T18:25:08.915Z,55.9
2022-12-24T18:26:22.935Z,56.7
2022-12-24T18:27:29.968Z,42
2022-12-24T18:28:36.759Z,42
2022-12-24T18:29:44.115Z,36.4
2022-12-24T18:30:51.091Z,36.7
2022-12-24T18:32:00.337Z,38.7
2022-12-24T18:33:07.491Z,35.9
2022-12-24T18:34:14.652Z,35.1
2022-12-24T18:35:21.797Z,32
2022-12-24T18:36:35.963Z,34.9
2022-12-24T18:37:42.948Z,38.5
2022-12-24T18:38:50.210Z,40.2
2022-12-24T18:39:57.274Z,38.4
2022-12-24T18:41:04.733Z,37